Time;durP1;ratioP1;P1;durP2;ratioP2;P2;SDS_P1;SDS_P2;PMS_P1;PMS_P2;Temp;Humidity;BMP_temperature;BMP_pressure;BME280_temperature;BME280_humidity;BME280_pressure;Samples;Min_cycle;Max_cycle;Signal;HPM_P1;HPM_P2
2022/10/25 00:01:14;;;;;;;;;;;;;;;;;;4962644;28;19924;-55
2022/10/25 00:03:39;;;;;;;;;;;;;;;;;;4958966;28;19958;-54
2022/10/25 00:06:04;;;;;;;;;;;;;;;;;;4959657;28;19965;-54
2022/10/25 00:08:29;;;;;;;;;;;;;;;;;;4962383;28;19945;-54
2022/10/25 00:10:55;;;;;;;;;;;;;;;;;;4964015;28;20298;-53
2022/10/25 00:13:20;;;;;;;;;;;;;;;;;;4960986;28;19933;-53
2022/10/25 00:15:45;;;;;;;;;;;;;;;;;;4959357;28;20388;-53
2022/10/25 00:18:10;;;;;;;;;;;;;;;;;;4958700;28;19925;-55
2022/10/25 00:20:37;;;;;;;;;;;;;;;;;;4961169;28;19976;-53
2022/10/25 00:23:02;;;;;;;;;;;;;;;;;;4962468;28;19918;-53
2022/10/25 00:25:27;;;;;;;;;;;;;;;;;;4958654;28;20043;-53
2022/10/25 00:27:52;;;;;;;;;;;;;;;;;;4959794;28;19925;-55
2022/10/25 00:30:18;;;;;;;;;;;;;;;;;;4955587;28;19995;-54
2022/10/25 00:32:43;;;;;;;;;;;;;;;;;;4959277;28;19922;-54
2022/10/25 00:35:09;;;;;;;;;;;;;;;;;;4960806;28;19929;-54
2022/10/25 00:37:34;;;;;;;;;;;;;;;;;;4979060;28;19918;-54
2022/10/25 00:39:59;;;;;;;;;;;;;;;;;;4963883;28;19926;-54
2022/10/25 00:42:25;;;;;;;;;;;;;;;;;;4960329;28;19918;-54
2022/10/25 00:44:52;;;;;;;;;;;;;;;;;;4962405;28;19918;-56
2022/10/25 00:47:20;;;;;;;;;;;;;;;;;;4960170;28;19965;-54
2022/10/25 00:49:54;;;;;;;;;;;;;;;;;;4960746;28;20392;-55
2022/10/25 00:52:19;;;;;;;;;;;;;;;;;;4957046;28;19957;-54
2022/10/25 00:54:47;;;;;;;;;;;;;;;;;;4957646;28;19957;-53
2022/10/25 00:57:28;;;;;;;;;;;;;;;;;;4967063;28;19919;-54
2022/10/25 00:59:53;;;;;;;;;;;;;;;;;;4962631;28;19937;-54
2022/10/25 01:02:21;;;;;;;;;;;;;;;;;;4963307;28;19922;-54
2022/10/25 01:04:46;;;;;;;;;;;;;;;;;;4960828;28;20311;-53
2022/10/25 01:07:11;;;;;;;;;;;;;;;;;;4964053;28;19918;-54
2022/10/25 01:09:37;;;;;;;;;;;;;;;;;;4961528;28;19923;-54
2022/10/25 01:12:03;;;;;;;;;;;;;;;;;;4961359;28;19925;-56
2022/10/25 01:14:29;;;;;;;;;;;;;;;;;;4958430;28;19919;-54
2022/10/25 01:16:54;;;;;;;;;;;;;;;;;;4954433;28;20452;-53
2022/10/25 01:19:39;;;;;;;;;;;;;;;;;;4966136;28;19931;-54
2022/10/25 01:22:10;;;;;;;;;;;;;;;;;;4970413;28;19928;-53
2022/10/25 01:24:35;;;;;;;;;;;;;;;;;;4960116;28;20001;-54
2022/10/25 01:27:03;;;;;;;;;;;;;;;;;;4977131;28;20003;-54
2022/10/25 01:29:37;;;;;;;;;;;;;;;;;;4960070;28;19925;-52
2022/10/25 01:32:18;;;;;;;;;;;;;;;;;;4961081;28;19933;-54
2022/10/25 01:35:06;;;;;;;;;;;;;;;;;;4967316;28;19918;-53
2022/10/25 01:37:36;;;;;;;;;;;;;;;;;;4995253;28;19918;-54
2022/10/25 01:40:08;;;;;;;;;;;;;;;;;;4957690;28;19926;-55
2022/10/25 01:42:39;;;;;;;;;;;;;;;;;;4960302;28;19918;-53
2022/10/25 01:45:23;;;;;;;;;;;;;;;;;;4958032;28;19918;-53
2022/10/25 01:47:52;;;;;;;;;;;;;;;;;;4961311;28;19926;-54
2022/10/25 01:50:21;;;;;;;;;;;;;;;;;;4959466;28;19996;-54
2022/10/25 01:52:46;;;;;;;;;;;;;;;;;;4965404;28;19925;-53
2022/10/25 01:55:12;;;;;;;;;;;;;;;;;;4962715;28;20384;-55
2022/10/25 01:57:53;;;;;;;;;;;;;;;;;;4959133;28;19918;-53
2022/10/25 02:00:20;;;;;;;;;;;;;;;;;;4960445;28;20388;-53
2022/10/25 02:02:52;;;;;;;;;;;;;;;;;;4963498;28;19922;-53
2022/10/25 02:05:29;;;;;;;;;;;;;;;;;;4963889;28;19922;-54
2022/10/25 02:07:55;;;;;;;;;;;;;;;;;;4961430;28;19918;-53
2022/10/25 02:10:27;;;;;;;;;;;;;;;;;;4965983;28;19918;-53
2022/10/25 02:13:02;;;;;;;;;;;;;;;;;;4962308;28;19918;-53
2022/10/25 02:15:33;;;;;;;;;;;;;;;;;;4965510;28;19984;-53
2022/10/25 02:18:00;;;;;;;;;;;;;;;;;;4966339;28;19918;-54
2022/10/25 02:20:27;;;;;;;;;;;;;;;;;;4957871;28;20418;-54
2022/10/25 02:22:53;;;;;;;;;;;;;;;;;;4956856;28;19919;-52
2022/10/25 02:25:19;;;;;;;;;;;;;;;;;;4954073;28;19989;-53
2022/10/25 02:27:45;;;;;;;;;;;;;;;;;;4958990;28;20300;-54
2022/10/25 02:30:10;;;;;;;;;;;;;;;;;;4958083;28;20165;-52
2022/10/25 02:32:36;;;;;;;;;;;;;;;;;;4956477;28;19964;-54
2022/10/25 02:35:02;;;;;;;;;;;;;;;;;;4957317;28;19944;-55
2022/10/25 02:37:27;;;;;;;;;;;;;;;;;;4957513;28;19925;-54
2022/10/25 02:39:52;;;;;;;;;;;;;;;;;;4955550;28;19922;-53
2022/10/25 02:45:36;;;;;;;;;;;;;;;;;;4958586;28;19999;-52
2022/10/25 02:48:01;;;;;;;;;;;;;;;;;;4954164;28;19918;-53
2022/10/25 02:50:26;;;;;;;;;;;;;;;;;;4965542;28;20318;-54
2022/10/25 02:52:51;;;;;;;;;;;;;;;;;;4964605;28;19919;-53
2022/10/25 02:55:17;;;;;;;;;;;;;;;;;;4961711;28;19924;-53
2022/10/25 02:57:42;;;;;;;;;;;;;;;;;;4967925;28;20069;-52
2022/10/25 03:00:07;;;;;;;;;;;;;;;;;;4967944;28;20020;-53
2022/10/25 03:02:33;;;;;;;;;;;;;;;;;;4958786;28;20332;-54
2022/10/25 03:04:58;;;;;;;;;;;;;;;;;;4963030;28;20364;-53
2022/10/25 03:07:23;;;;;;;;;;;;;;;;;;4965697;28;20415;-53
2022/10/25 03:09:49;;;;;;;;;;;;;;;;;;4963821;28;20013;-51
2022/10/25 03:12:14;;;;;;;;;;;;;;;;;;4963814;28;19940;-53
2022/10/25 03:14:39;;;;;;;;;;;;;;;;;;4966286;28;20396;-53
2022/10/25 03:17:05;;;;;;;;;;;;;;;;;;4961958;28;19919;-53
2022/10/25 03:19:31;;;;;;;;;;;;;;;;;;4960239;28;20435;-52
2022/10/25 03:21:56;;;;;;;;;;;;;;;;;;4957461;28;20013;-53
2022/10/25 03:24:21;;;;;;;;;;;;;;;;;;4966312;28;19925;-53
2022/10/25 03:26:46;;;;;;;;;;;;;;;;;;4962175;28;19922;-53
2022/10/25 03:29:12;;;;;;;;;;;;;;;;;;4961440;28;20008;-51
2022/10/25 03:31:37;;;;;;;;;;;;;;;;;;4961356;28;20168;-54
2022/10/25 03:34:02;;;;;;;;;;;;;;;;;;4963039;28;19922;-53
2022/10/25 03:36:27;;;;;;;;;;;;;;;;;;4960922;28;20387;-53
2022/10/25 03:38:53;;;;;;;;;;;;;;;;;;4961800;28;19930;-51
2022/10/25 03:41:18;;;;;;;;;;;;;;;;;;4966708;28;19918;-51
2022/10/25 03:43:43;;;;;;;;;;;;;;;;;;4967063;28;19924;-53
2022/10/25 03:46:09;;;;;;;;;;;;;;;;;;4963072;28;19922;-52
2022/10/25 03:48:34;;;;;;;;;;;;;;;;;;4962523;28;19918;-53
2022/10/25 03:51:00;;;;;;;;;;;;;;;;;;4966747;28;20020;-53
2022/10/25 03:53:25;;;;;;;;;;;;;;;;;;4960889;28;20034;-53
2022/10/25 03:55:50;;;;;;;;;;;;;;;;;;4957102;28;19923;-52
2022/10/25 03:58:15;;;;;;;;;;;;;;;;;;4962403;28;20366;-54
2022/10/25 04:00:41;;;;;;;;;;;;;;;;;;4975939;28;19921;-54
2022/10/25 04:03:06;;;;;;;;;;;;;;;;;;4966669;28;20367;-52
2022/10/25 04:05:31;;;;;;;;;;;;;;;;;;4962198;28;20020;-54
2022/10/25 04:07:57;;;;;;;;;;;;;;;;;;4960006;28;19918;-52
2022/10/25 04:10:24;;;;;;;;;;;;;;;;;;4957438;28;21358;-53
2022/10/25 04:12:51;;;;;;;;;;;;;;;;;;4960015;28;19922;-54
2022/10/25 04:15:17;;;;;;;;;;;;;;;;;;4976832;28;20401;-53
2022/10/25 04:17:42;;;;;;;;;;;;;;;;;;4975007;28;19966;-53
2022/10/25 04:20:08;;;;;;;;;;;;;;;;;;4966044;28;19925;-53
2022/10/25 04:22:33;;;;;;;;;;;;;;;;;;4974769;28;20300;-55
2022/10/25 04:24:58;;;;;;;;;;;;;;;;;;4964356;28;19918;-54
2022/10/25 04:27:24;;;;;;;;;;;;;;;;;;4967170;28;19964;-53
2022/10/25 04:29:49;;;;;;;;;;;;;;;;;;4964226;28;19983;-53
2022/10/25 04:32:14;;;;;;;;;;;;;;;;;;4965203;28;19915;-55
2022/10/25 04:34:40;;;;;;;;;;;;;;;;;;4964685;28;20451;-54
2022/10/25 04:37:05;;;;;;;;;;;;;;;;;;4968152;28;19922;-54
2022/10/25 04:39:30;;;;;;;;;;;;;;;;;;4965991;28;19918;-54
2022/10/25 04:41:55;;;;;;;;;;;;;;;;;;4967223;28;20005;-55
2022/10/25 04:44:21;;;;;;;;;;;;;;;;;;4969193;28;19919;-54
2022/10/25 04:46:46;;;;;;;;;;;;;;;;;;4967571;28;19922;-54
2022/10/25 04:49:12;;;;;;;;;;;;;;;;;;4965572;28;20055;-53
2022/10/25 04:51:37;;;;;;;;;;;;;;;;;;4965581;28;20015;-52
2022/10/25 04:54:03;;;;;;;;;;;;;;;;;;4980330;28;19964;-55
2022/10/25 04:56:28;;;;;;;;;;;;;;;;;;4967548;28;19918;-55
2022/10/25 04:58:54;;;;;;;;;;;;;;;;;;4968110;28;19922;-53
2022/10/25 05:01:19;;;;;;;;;;;;;;;;;;4966198;28;19922;-55
2022/10/25 05:03:44;;;;;;;;;;;;;;;;;;4965129;28;19918;-58
2022/10/25 05:06:10;;;;;;;;;;;;;;;;;;4969238;28;19914;-58
2022/10/25 05:08:38;;;;;;;;;;;;;;;;;;4966157;28;19918;-58
2022/10/25 05:11:04;;;;;;;;;;;;;;;;;;4968461;28;19918;-58
2022/10/25 05:13:33;;;;;;;;;;;;;;;;;;4961318;28;20380;-58
2022/10/25 05:15:59;;;;;;;;;;;;;;;;;;4968567;28;20001;-59
2022/10/25 05:18:25;;;;;;;;;;;;;;;;;;4964787;28;20357;-59
2022/10/25 05:21:00;;;;;;;;;;;;;;;;;;4984594;28;19914;-59
2022/10/25 05:23:26;;;;;;;;;;;;;;;;;;4960648;28;20434;-59
2022/10/25 05:26:03;;;;;;;;;;;;;;;;;;4963897;28;19941;-58
2022/10/25 05:28:29;;;;;;;;;;;;;;;;;;4962292;28;20006;-58
2022/10/25 05:30:54;;;;;;;;;;;;;;;;;;4961493;28;20045;-56
2022/10/25 05:33:19;;;;;;;;;;;;;;;;;;4975377;28;19926;-58
2022/10/25 05:35:44;;;;;;;;;;;;;;;;;;4962602;28;19918;-58
2022/10/25 05:38:10;;;;;;;;;;;;;;;;;;4958071;28;19922;-58
2022/10/25 05:40:35;;;;;;;;;;;;;;;;;;4960305;28;19914;-59
2022/10/25 05:43:00;;;;;;;;;;;;;;;;;;4960113;28;19922;-58
2022/10/25 05:45:25;;;;;;;;;;;;;;;;;;4956695;28;19922;-58
2022/10/25 05:47:51;;;;;;;;;;;;;;;;;;4968632;28;19925;-58
2022/10/25 05:50:16;;;;;;;;;;;;;;;;;;4960577;28;20361;-58
2022/10/25 05:52:42;;;;;;;;;;;;;;;;;;4961954;28;19944;-58
2022/10/25 05:55:07;;;;;;;;;;;;;;;;;;4961873;28;19915;-58
2022/10/25 05:57:33;;;;;;;;;;;;;;;;;;4965068;28;20055;-58
2022/10/25 05:59:58;;;;;;;;;;;;;;;;;;4961183;28;20073;-58
2022/10/25 06:02:24;;;;;;;;;;;;;;;;;;4964233;28;20272;-58
2022/10/25 06:04:49;;;;;;;;;;;;;;;;;;4964358;28;19922;-58
2022/10/25 06:07:14;;;;;;;;;;;;;;;;;;4965336;28;19961;-58
2022/10/25 06:09:39;;;;;;;;;;;;;;;;;;4964261;28;19968;-57
2022/10/25 06:12:05;;;;;;;;;;;;;;;;;;4978516;28;19914;-58
2022/10/25 06:14:30;;;;;;;;;;;;;;;;;;4961252;28;20341;-58
2022/10/25 06:16:56;;;;;;;;;;;;;;;;;;4955897;28;19929;-58
2022/10/25 06:19:21;;;;;;;;;;;;;;;;;;4964153;28;19914;-56
2022/10/25 06:21:46;;;;;;;;;;;;;;;;;;4963333;28;19929;-58
2022/10/25 06:24:11;;;;;;;;;;;;;;;;;;4960006;28;19921;-58
2022/10/25 06:26:37;;;;;;;;;;;;;;;;;;4960883;28;20354;-58
2022/10/25 06:29:03;;;;;;;;;;;;;;;;;;4988504;28;19990;-58
2022/10/25 06:31:29;;;;;;;;;;;;;;;;;;4958720;28;20425;-58
2022/10/25 06:33:54;;;;;;;;;;;;;;;;;;4968130;28;19924;-58
2022/10/25 06:36:21;;;;;;;;;;;;;;;;;;4961674;28;19918;-58
2022/10/25 06:38:47;;;;;;;;;;;;;;;;;;4968706;28;19941;-58
2022/10/25 06:41:39;;;;;;;;;;;;;;;;;;4959507;28;19918;-58
2022/10/25 06:44:05;;;;;;;;;;;;;;;;;;4961365;28;19925;-58
2022/10/25 06:46:32;;;;;;;;;;;;;;;;;;4963699;28;20379;-58
2022/10/25 06:48:57;;;;;;;;;;;;;;;;;;4956209;28;20020;-58
2022/10/25 06:51:23;;;;;;;;;;;;;;;;;;4956655;28;20412;-58
2022/10/25 06:53:53;;;;;;;;;;;;;;;;;;4960488;28;20549;-58
2022/10/25 06:56:18;;;;;;;;;;;;;;;;;;4959822;28;20522;-58
2022/10/25 06:58:43;;;;;;;;;;;;;;;;;;4961311;28;19923;-58
2022/10/25 07:01:10;;;;;;;;;;;;;;;;;;4968119;28;20005;-58
2022/10/25 07:03:35;;;;;;;;;;;;;;;;;;4969667;28;19918;-58
2022/10/25 07:06:05;;;;;;;;;;;;;;;;;;4954978;28;19929;-58
2022/10/25 07:08:31;;;;;;;;;;;;;;;;;;4959797;28;19926;-58
2022/10/25 07:10:56;;;;;;;;;;;;;;;;;;4961813;28;19914;-58
2022/10/25 07:13:21;;;;;;;;;;;;;;;;;;4965264;28;19918;-57
2022/10/25 07:15:47;;;;;;;;;;;;;;;;;;4962426;28;19972;-58
2022/10/25 07:18:12;;;;;;;;;;;;;;;;;;4966540;28;19922;-58
2022/10/25 07:20:37;;;;;;;;;;;;;;;;;;4961571;28;20283;-58
2022/10/25 07:23:02;;;;;;;;;;;;;;;;;;4960004;28;19918;-58
2022/10/25 07:25:28;;;;;;;;;;;;;;;;;;4957641;28;19919;-58
2022/10/25 07:27:53;;;;;;;;;;;;;;;;;;4955191;28;19979;-58
2022/10/25 07:30:18;;;;;;;;;;;;;;;;;;4959481;28;20406;-58
2022/10/25 07:32:43;;;;;;;;;;;;;;;;;;4961507;28;19918;-58
2022/10/25 07:35:09;;;;;;;;;;;;;;;;;;4962554;28;19927;-58
2022/10/25 07:37:34;;;;;;;;;;;;;;;;;;4962551;28;20299;-57
2022/10/25 07:39:59;;;;;;;;;;;;;;;;;;4969275;28;19967;-58
2022/10/25 07:42:24;;;;;;;;;;;;;;;;;;4967866;28;19925;-58
2022/10/25 07:44:50;;;;;;;;;;;;;;;;;;4971160;28;19918;-58
2022/10/25 07:47:15;;;;;;;;;;;;;;;;;;4968902;28;19918;-58
2022/10/25 07:49:40;;;;;;;;;;;;;;;;;;4969792;28;19918;-58
2022/10/25 07:52:06;;;;;;;;;;;;;;;;;;4966503;28;20382;-58
2022/10/25 07:54:31;;;;;;;;;;;;;;;;;;4967390;28;19950;-58
2022/10/25 07:56:56;;;;;;;;;;;;;;;;;;4969518;28;19922;-58
2022/10/25 07:59:21;;;;;;;;;;;;;;;;;;4967437;28;20341;-58
2022/10/25 08:01:47;;;;;;;;;;;;;;;;;;4969573;28;20005;-58
2022/10/25 08:04:12;;;;;;;;;;;;;;;;;;4968214;28;19918;-57
2022/10/25 08:06:37;;;;;;;;;;;;;;;;;;4969599;28;19918;-58
2022/10/25 08:09:02;;;;;;;;;;;;;;;;;;4967890;28;19922;-58
2022/10/25 08:11:28;;;;;;;;;;;;;;;;;;4961058;28;20012;-58
2022/10/25 08:13:53;;;;;;;;;;;;;;;;;;4962634;28;19926;-57
2022/10/25 08:16:18;;;;;;;;;;;;;;;;;;4963434;28;19918;-57
2022/10/25 08:18:44;;;;;;;;;;;;;;;;;;4973038;28;19923;-57
2022/10/25 08:21:09;;;;;;;;;;;;;;;;;;4964798;28;19922;-57
2022/10/25 08:23:34;;;;;;;;;;;;;;;;;;4964822;28;19926;-57
2022/10/25 08:26:00;;;;;;;;;;;;;;;;;;4966965;28;20406;-58
2022/10/25 08:28:25;;;;;;;;;;;;;;;;;;4956263;28;20422;-57
2022/10/25 08:30:52;;;;;;;;;;;;;;;;;;4957383;28;19954;-57
2022/10/25 08:33:17;;;;;;;;;;;;;;;;;;4960027;28;20396;-57
2022/10/25 08:35:42;;;;;;;;;;;;;;;;;;4966430;28;19963;-58
2022/10/25 08:38:07;;;;;;;;;;;;;;;;;;4965642;28;19926;-58
2022/10/25 08:40:35;;;;;;;;;;;;;;;;;;4968694;28;20372;-57
2022/10/25 08:43:10;;;;;;;;;;;;;;;;;;4958717;28;19918;-57
2022/10/25 08:45:37;;;;;;;;;;;;;;;;;;4968118;28;19918;-57
2022/10/25 08:48:04;;;;;;;;;;;;;;;;;;4966626;28;19914;-57
2022/10/25 08:50:46;;;;;;;;;;;;;;;;;;4971885;28;19924;-57
2022/10/25 08:53:15;;;;;;;;;;;;;;;;;;4963777;28;20013;-57
2022/10/25 08:55:41;;;;;;;;;;;;;;;;;;4967997;28;19929;-58
2022/10/25 08:58:19;;;;;;;;;;;;;;;;;;4972937;28;19918;-57
2022/10/25 09:00:46;;;;;;;;;;;;;;;;;;4964075;28;19918;-57
2022/10/25 09:03:15;;;;;;;;;;;;;;;;;;4986584;28;19916;-57
2022/10/25 09:05:44;;;;;;;;;;;;;;;;;;4959687;28;19919;-57
2022/10/25 09:08:12;;;;;;;;;;;;;;;;;;4980264;28;19918;-57
2022/10/25 09:10:48;;;;;;;;;;;;;;;;;;4964130;28;19980;-58
2022/10/25 09:13:43;;;;;;;;;;;;;;;;;;4962234;28;20399;-57
2022/10/25 09:16:11;;;;;;;;;;;;;;;;;;5016078;28;19974;-58
2022/10/25 09:18:42;;;;;;;;;;;;;;;;;;4960546;28;19929;-57
2022/10/25 09:21:10;;;;;;;;;;;;;;;;;;4960398;28;20024;-57
2022/10/25 09:23:35;;;;;;;;;;;;;;;;;;4961321;28;19945;-58
2022/10/25 09:26:12;;;;;;;;;;;;;;;;;;4963805;28;19943;-58
2022/10/25 09:28:44;;;;;;;;;;;;;;;;;;4960501;28;20393;-58
2022/10/25 09:31:11;;;;;;;;;;;;;;;;;;4963844;28;19927;-58
2022/10/25 09:33:40;;;;;;;;;;;;;;;;;;4957915;28;19922;-57
2022/10/25 09:36:07;;;;;;;;;;;;;;;;;;4960687;28;20339;-58
2022/10/25 09:38:32;;;;;;;;;;;;;;;;;;4960945;28;19922;-58
2022/10/25 09:41:02;;;;;;;;;;;;;;;;;;4967756;28;19918;-58
2022/10/25 09:43:34;;;;;;;;;;;;;;;;;;4964502;28;19971;-58
2022/10/25 09:46:02;;;;;;;;;;;;;;;;;;4960374;28;19930;-57
2022/10/25 09:48:39;;;;;;;;;;;;;;;;;;4959379;28;20304;-58
2022/10/25 09:51:11;;;;;;;;;;;;;;;;;;4963683;28;19918;-58
2022/10/25 09:53:39;;;;;;;;;;;;;;;;;;4963009;28;19918;-57
2022/10/25 09:56:04;;;;;;;;;;;;;;;;;;4965644;28;19922;-58
2022/10/25 09:58:34;;;;;;;;;;;;;;;;;;4963346;28;19926;-58
2022/10/25 10:01:00;;;;;;;;;;;;;;;;;;4965391;28;20333;-58
2022/10/25 10:03:34;;;;;;;;;;;;;;;;;;4964074;28;19945;-58
2022/10/25 10:06:00;;;;;;;;;;;;;;;;;;4959224;28;20223;-58
2022/10/25 10:08:27;;;;;;;;;;;;;;;;;;4963290;28;19914;-58
2022/10/25 10:10:52;;;;;;;;;;;;;;;;;;4961496;28;19919;-58
2022/10/25 10:13:24;;;;;;;;;;;;;;;;;;4962413;28;19914;-54
2022/10/25 10:15:57;;;;;;;;;;;;;;;;;;4955924;28;19925;-54
2022/10/25 10:18:25;;;;;;;;;;;;;;;;;;4954866;28;20024;-54
2022/10/25 10:20:59;;;;;;;;;;;;;;;;;;4963591;28;20261;-54
2022/10/25 10:23:25;;;;;;;;;;;;;;;;;;4958150;28;19949;-54
2022/10/25 10:25:51;;;;;;;;;;;;;;;;;;4958652;28;19925;-59
2022/10/25 10:28:16;;;;;;;;;;;;;;;;;;4962939;28;19922;-54
2022/10/25 10:30:50;;;;;;;;;;;;;;;;;;4961184;28;19914;-53
2022/10/25 10:33:16;;;;;;;;;;;;;;;;;;4962366;28;20297;-53
2022/10/25 10:35:41;;;;;;;;;;;;;;;;;;4959368;28;20004;-54
2022/10/25 10:38:13;;;;;;;;;;;;;;;;;;4960401;28;20060;-54
2022/10/25 10:40:39;;;;;;;;;;;;;;;;;;4965593;28;20028;-54
2022/10/25 10:43:31;;;;;;;;;;;;;;;;;;4959855;28;20015;-54
2022/10/25 10:46:04;;;;;;;;;;;;;;;;;;4968168;28;19969;-54
2022/10/25 10:48:34;;;;;;;;;;;;;;;;;;4961514;28;19919;-53
2022/10/25 10:50:59;;;;;;;;;;;;;;;;;;4960950;28;19941;-54
2022/10/25 10:53:28;;;;;;;;;;;;;;;;;;4962996;28;20396;-54
2022/10/25 10:55:55;;;;;;;;;;;;;;;;;;4958809;28;21473;-54
2022/10/25 10:58:34;;;;;;;;;;;;;;;;;;4960740;28;19933;-55
2022/10/25 11:01:01;;;;;;;;;;;;;;;;;;4965201;28;19921;-54
2022/10/25 11:03:42;;;;;;;;;;;;;;;;;;4963499;28;19922;-54
2022/10/25 11:06:07;;;;;;;;;;;;;;;;;;4961709;28;19922;-54
2022/10/25 11:08:32;;;;;;;;;;;;;;;;;;4963960;28;20383;-55
2022/10/25 11:11:21;;;;;;;;;;;;;;;;;;4968817;28;20014;-55
2022/10/25 11:13:54;;;;;;;;;;;;;;;;;;4975341;28;19926;-52
2022/10/25 11:16:29;;;;;;;;;;;;;;;;;;4964389;28;20583;-54
2022/10/25 11:19:03;;;;;;;;;;;;;;;;;;4969637;28;20395;-55
2022/10/25 11:21:31;;;;;;;;;;;;;;;;;;4962966;28;19919;-54
2022/10/25 11:24:05;;;;;;;;;;;;;;;;;;4963062;28;19919;-54
2022/10/25 11:26:33;;;;;;;;;;;;;;;;;;4963421;28;19948;-54
2022/10/25 11:28:58;;;;;;;;;;;;;;;;;;4965406;28;20312;-54
2022/10/25 11:31:23;;;;;;;;;;;;;;;;;;4966927;28;19918;-54
2022/10/25 11:34:15;;;;;;;;;;;;;;;;;;4961256;28;20451;-54
2022/10/25 11:36:49;;;;;;;;;;;;;;;;;;4968896;28;19964;-54
2022/10/25 11:39:20;;;;;;;;;;;;;;;;;;4966489;28;19926;-54
2022/10/25 11:41:45;;;;;;;;;;;;;;;;;;4963933;28;19925;-54
2022/10/25 11:44:13;;;;;;;;;;;;;;;;;;4967277;28;19918;-53
2022/10/25 11:46:50;;;;;;;;;;;;;;;;;;4965262;28;19929;-56
2022/10/25 11:49:31;;;;;;;;;;;;;;;;;;4963840;28;20376;-58
2022/10/25 11:52:02;;;;;;;;;;;;;;;;;;4968849;28;19925;-56
2022/10/25 11:54:33;;;;;;;;;;;;;;;;;;4966062;28;20009;-56
2022/10/25 11:56:58;;;;;;;;;;;;;;;;;;4965817;28;19961;-56
2022/10/25 11:59:44;;;;;;;;;;;;;;;;;;4962937;28;20319;-56
2022/10/25 12:02:28;;;;;;;;;;;;;;;;;;4963038;28;19918;-55
2022/10/25 12:04:53;;;;;;;;;;;;;;;;;;4964137;28;19922;-55
2022/10/25 12:07:22;;;;;;;;;;;;;;;;;;4965613;28;20005;-58
2022/10/25 12:09:54;;;;;;;;;;;;;;;;;;4966614;28;19937;-56
2022/10/25 12:12:22;;;;;;;;;;;;;;;;;;4962345;28;19941;-56
2022/10/25 12:14:49;;;;;;;;;;;;;;;;;;4968029;28;19922;-56
2022/10/25 12:17:29;;;;;;;;;;;;;;;;;;4962315;28;20196;-56
2022/10/25 12:19:55;;;;;;;;;;;;;;;;;;4967714;28;19926;-56
2022/10/25 12:22:23;;;;;;;;;;;;;;;;;;4962636;28;19924;-56
2022/10/25 12:24:51;;;;;;;;;;;;;;;;;;4964368;28;19953;-56
2022/10/25 12:27:18;;;;;;;;;;;;;;;;;;4968496;28;19922;-56
2022/10/25 12:29:46;;;;;;;;;;;;;;;;;;4961484;28;19919;-55
2022/10/25 12:32:20;;;;;;;;;;;;;;;;;;4965168;28;19925;-56
2022/10/25 12:34:52;;;;;;;;;;;;;;;;;;4962423;28;20324;-55
2022/10/25 12:37:25;;;;;;;;;;;;;;;;;;4964355;28;19975;-55
2022/10/25 12:39:51;;;;;;;;;;;;;;;;;;4969536;28;19918;-55
2022/10/25 12:42:19;;;;;;;;;;;;;;;;;;4966941;28;19918;-55
2022/10/25 12:44:50;;;;;;;;;;;;;;;;;;4966029;28;20395;-55
2022/10/25 12:47:21;;;;;;;;;;;;;;;;;;4963282;28;20411;-56
2022/10/25 12:50:05;;;;;;;;;;;;;;;;;;4968099;28;19918;-58
2022/10/25 12:52:30;;;;;;;;;;;;;;;;;;4964638;28;19922;-56
2022/10/25 12:55:09;;;;;;;;;;;;;;;;;;4964513;28;20111;-60
2022/10/25 12:57:34;;;;;;;;;;;;;;;;;;4966050;28;20005;-58
2022/10/25 12:59:59;;;;;;;;;;;;;;;;;;4965037;28;20012;-59
2022/10/25 13:02:31;;;;;;;;;;;;;;;;;;4967541;28;19957;-59
2022/10/25 13:05:05;;;;;;;;;;;;;;;;;;4964074;28;19979;-59
2022/10/25 13:07:32;;;;;;;;;;;;;;;;;;4961650;28;19918;-59
2022/10/25 13:10:05;;;;;;;;;;;;;;;;;;4963383;28;20024;-59
2022/10/25 13:12:30;;;;;;;;;;;;;;;;;;4963450;28;20454;-59
2022/10/25 13:14:57;;;;;;;;;;;;;;;;;;4962677;28;20018;-58
2022/10/25 13:17:22;;;;;;;;;;;;;;;;;;4968510;28;19929;-58
2022/10/25 13:19:52;;;;;;;;;;;;;;;;;;4959435;28;19918;-58
2022/10/25 13:22:39;;;;;;;;;;;;;;;;;;4965899;28;19972;-55
2022/10/25 13:25:11;;;;;;;;;;;;;;;;;;4963705;28;19926;-56
2022/10/25 13:27:36;;;;;;;;;;;;;;;;;;4962525;28;19941;-56
2022/10/25 13:30:20;;;;;;;;;;;;;;;;;;4964459;28;20307;-56
2022/10/25 13:33:06;;;;;;;;;;;;;;;;;;4962353;28;20021;-56
2022/10/25 13:35:37;;;;;;;;;;;;;;;;;;4962581;28;19922;-56
2022/10/25 13:38:06;;;;;;;;;;;;;;;;;;4967858;28;19933;-56
2022/10/25 13:40:31;;;;;;;;;;;;;;;;;;4967158;28;19918;-56
2022/10/25 13:42:59;;;;;;;;;;;;;;;;;;4966286;28;19926;-56
2022/10/25 13:45:33;;;;;;;;;;;;;;;;;;4963413;28;19965;-57
2022/10/25 13:48:06;;;;;;;;;;;;;;;;;;4966157;28;19949;-56
2022/10/25 13:50:39;;;;;;;;;;;;;;;;;;4966671;28;19918;-56
2022/10/25 13:53:18;;;;;;;;;;;;;;;;;;4966687;28;19982;-60
2022/10/25 13:55:45;;;;;;;;;;;;;;;;;;4962999;28;20404;-59
2022/10/25 13:58:29;;;;;;;;;;;;;;;;;;4960492;28;20066;-59
2022/10/25 14:00:55;;;;;;;;;;;;;;;;;;4967093;28;19969;-60
2022/10/25 14:03:21;;;;;;;;;;;;;;;;;;4961657;28;20300;-59
2022/10/25 14:05:53;;;;;;;;;;;;;;;;;;4962069;28;19922;-59
2022/10/25 14:08:27;;;;;;;;;;;;;;;;;;4963738;28;19918;-59
2022/10/25 14:10:53;;;;;;;;;;;;;;;;;;4964616;28;19922;-59
2022/10/25 14:13:31;;;;;;;;;;;;;;;;;;4993024;28;19918;-60
2022/10/25 14:15:58;;;;;;;;;;;;;;;;;;4960553;28;19919;-59
2022/10/25 14:18:24;;;;;;;;;;;;;;;;;;4953267;28;19950;-59
2022/10/25 14:20:54;;;;;;;;;;;;;;;;;;4961821;28;20433;-59
2022/10/25 14:23:25;;;;;;;;;;;;;;;;;;4963091;28;19926;-59
2022/10/25 14:25:53;;;;;;;;;;;;;;;;;;4959179;28;19929;-59
2022/10/25 14:28:28;;;;;;;;;;;;;;;;;;4961011;28;20392;-59
2022/10/25 14:31:03;;;;;;;;;;;;;;;;;;4961851;28;19941;-60
2022/10/25 14:33:35;;;;;;;;;;;;;;;;;;4961212;28;19918;-59
2022/10/25 14:36:08;;;;;;;;;;;;;;;;;;4961454;28;19922;-59
2022/10/25 14:38:48;;;;;;;;;;;;;;;;;;4970528;28;20009;-59
2022/10/25 14:41:18;;;;;;;;;;;;;;;;;;4965100;28;19919;-59
2022/10/25 14:43:45;;;;;;;;;;;;;;;;;;4961314;28;19981;-59
2022/10/25 14:46:13;;;;;;;;;;;;;;;;;;4965361;28;19925;-59
2022/10/25 14:48:40;;;;;;;;;;;;;;;;;;4967339;28;20013;-59
2022/10/25 14:51:13;;;;;;;;;;;;;;;;;;4965811;28;19975;-58
2022/10/25 14:53:46;;;;;;;;;;;;;;;;;;4962398;28;20300;-59
2022/10/25 14:56:18;;;;;;;;;;;;;;;;;;4966761;28;19918;-59
2022/10/25 14:58:43;;;;;;;;;;;;;;;;;;4964893;28;19926;-59
2022/10/25 15:01:09;;;;;;;;;;;;;;;;;;4960734;28;20294;-59
2022/10/25 15:03:39;;;;;;;;;;;;;;;;;;4962792;28;19919;-59
2022/10/25 15:06:04;;;;;;;;;;;;;;;;;;4961688;28;19918;-59
2022/10/25 15:08:32;;;;;;;;;;;;;;;;;;4959907;28;19918;-58
2022/10/25 15:11:00;;;;;;;;;;;;;;;;;;4964087;28;19928;-59
2022/10/25 15:13:31;;;;;;;;;;;;;;;;;;4963335;28;19941;-59
2022/10/25 15:16:00;;;;;;;;;;;;;;;;;;4958515;28;19996;-59
2022/10/25 15:18:25;;;;;;;;;;;;;;;;;;4958361;28;20411;-59
2022/10/25 15:21:09;;;;;;;;;;;;;;;;;;4964851;28;20126;-58
2022/10/25 15:23:35;;;;;;;;;;;;;;;;;;4960163;28;19919;-59
2022/10/25 15:26:18;;;;;;;;;;;;;;;;;;4952234;28;19922;-59
2022/10/25 15:28:48;;;;;;;;;;;;;;;;;;4953316;28;19926;-58
2022/10/25 15:31:13;;;;;;;;;;;;;;;;;;4956671;28;20008;-58
2022/10/25 15:33:40;;;;;;;;;;;;;;;;;;4955162;28;20056;-58
2022/10/25 15:36:05;;;;;;;;;;;;;;;;;;4971251;28;19929;-59
2022/10/25 15:38:32;;;;;;;;;;;;;;;;;;4958726;28;19923;-58
2022/10/25 15:40:57;;;;;;;;;;;;;;;;;;4954845;28;19933;-58
2022/10/25 15:43:23;;;;;;;;;;;;;;;;;;4957735;28;19918;-59
2022/10/25 15:45:48;;;;;;;;;;;;;;;;;;4967739;28;19918;-59
2022/10/25 15:48:15;;;;;;;;;;;;;;;;;;4956893;28;19925;-58
2022/10/25 15:50:44;;;;;;;;;;;;;;;;;;4959107;28;19922;-59
2022/10/25 15:53:10;;;;;;;;;;;;;;;;;;4956077;28;20044;-59
2022/10/25 15:55:35;;;;;;;;;;;;;;;;;;4960503;28;19919;-59
2022/10/25 15:58:01;;;;;;;;;;;;;;;;;;4978052;28;20328;-58
2022/10/25 16:00:29;;;;;;;;;;;;;;;;;;4960970;28;19918;-58
2022/10/25 16:02:54;;;;;;;;;;;;;;;;;;4964450;28;19991;-55
2022/10/25 16:05:21;;;;;;;;;;;;;;;;;;4961287;28;19922;-55
2022/10/25 16:07:46;;;;;;;;;;;;;;;;;;4961487;28;19922;-55
2022/10/25 16:10:12;;;;;;;;;;;;;;;;;;4966934;28;20338;-55
2022/10/25 16:12:37;;;;;;;;;;;;;;;;;;4965782;28;19922;-54
2022/10/25 16:15:03;;;;;;;;;;;;;;;;;;4964521;28;19948;-60
2022/10/25 16:17:28;;;;;;;;;;;;;;;;;;4953413;28;19925;-58
2022/10/25 16:19:53;;;;;;;;;;;;;;;;;;4962445;28;20375;-58
2022/10/25 16:22:19;;;;;;;;;;;;;;;;;;4962259;28;20017;-58
2022/10/25 16:24:44;;;;;;;;;;;;;;;;;;4961055;28;19914;-58
2022/10/25 16:27:10;;;;;;;;;;;;;;;;;;4953050;28;19926;-58
2022/10/25 16:29:35;;;;;;;;;;;;;;;;;;4959212;28;19963;-58
2022/10/25 16:32:02;;;;;;;;;;;;;;;;;;4965925;28;19918;-59
2022/10/25 16:34:28;;;;;;;;;;;;;;;;;;4958064;28;20658;-58
2022/10/25 16:36:53;;;;;;;;;;;;;;;;;;4965507;28;20012;-59
2022/10/25 16:39:19;;;;;;;;;;;;;;;;;;4966208;28;19925;-58
2022/10/25 16:41:45;;;;;;;;;;;;;;;;;;4967017;28;19918;-59
2022/10/25 16:44:11;;;;;;;;;;;;;;;;;;4968517;28;19983;-58
2022/10/25 16:46:36;;;;;;;;;;;;;;;;;;4971420;28;19953;-58
2022/10/25 16:49:03;;;;;;;;;;;;;;;;;;4956223;28;19973;-58
2022/10/25 16:51:28;;;;;;;;;;;;;;;;;;4961090;28;19918;-58
2022/10/25 16:53:54;;;;;;;;;;;;;;;;;;4961999;28;19925;-58
2022/10/25 16:56:19;;;;;;;;;;;;;;;;;;4955824;28;19965;-58